sensor_id;sensor_type;location;lat;lon;timestamp;P1;durP1;ratioP1;P2;durP2;ratioP2
33074;SDS011;19433;51.292;6.868;2023-03-20T00:03:43;9.57;;;8.10;;
33074;SDS011;19433;51.292;6.868;2023-03-20T00:06:22;9.43;;;8.40;;
33074;SDS011;19433;51.292;6.868;2023-03-20T00:11:30;9.53;;;8.50;;
33074;SDS011;19433;51.292;6.868;2023-03-20T00:13:59;10.63;;;8.20;;
33074;SDS011;19433;51.292;6.868;2023-03-20T00:16:28;9.07;;;8.20;;
33074;SDS011;19433;51.292;6.868;2023-03-20T00:18:56;10.37;;;9.27;;
33074;SDS011;19433;51.292;6.868;2023-03-20T00:21:22;8.83;;;7.87;;
33074;SDS011;19433;51.292;6.868;2023-03-20T00:23:48;9.10;;;8.23;;
33074;SDS011;19433;51.292;6.868;2023-03-20T00:26:19;9.20;;;7.97;;
33074;SDS011;19433;51.292;6.868;2023-03-20T00:28:50;9.37;;;8.47;;
33074;SDS011;19433;51.292;6.868;2023-03-20T00:31:29;9.33;;;8.43;;
33074;SDS011;19433;51.292;6.868;2023-03-20T00:33:59;9.33;;;7.60;;
33074;SDS011;19433;51.292;6.868;2023-03-20T00:36:26;9.50;;;8.60;;
33074;SDS011;19433;51.292;6.868;2023-03-20T00:38:52;8.37;;;7.67;;
33074;SDS011;19433;51.292;6.868;2023-03-20T00:41:20;8.40;;;7.70;;
33074;SDS011;19433;51.292;6.868;2023-03-20T00:46:41;9.57;;;8.67;;
33074;SDS011;19433;51.292;6.868;2023-03-20T00:49:10;8.97;;;8.17;;
33074;SDS011;19433;51.292;6.868;2023-03-20T00:51:36;9.83;;;8.53;;
33074;SDS011;19433;51.292;6.868;2023-03-20T00:56:39;10.13;;;9.13;;
33074;SDS011;19433;51.292;6.868;2023-03-20T00:59:08;10.90;;;9.77;;
33074;SDS011;19433;51.292;6.868;2023-03-20T01:04:16;9.20;;;8.07;;
33074;SDS011;19433;51.292;6.868;2023-03-20T01:06:43;8.73;;;7.10;;
33074;SDS011;19433;51.292;6.868;2023-03-20T01:09:16;7.83;;;7.13;;
33074;SDS011;19433;51.292;6.868;2023-03-20T01:11:42;8.00;;;7.30;;
33074;SDS011;19433;51.292;6.868;2023-03-20T01:14:12;7.50;;;6.80;;
33074;SDS011;19433;51.292;6.868;2023-03-20T01:16:39;7.33;;;6.63;;
33074;SDS011;19433;51.292;6.868;2023-03-20T01:19:05;6.70;;;6.10;;
33074;SDS011;19433;51.292;6.868;2023-03-20T01:21:31;7.60;;;6.60;;
33074;SDS011;19433;51.292;6.868;2023-03-20T01:23:56;7.13;;;6.37;;
33074;SDS011;19433;51.292;6.868;2023-03-20T01:31:28;7.53;;;6.83;;
33074;SDS011;19433;51.292;6.868;2023-03-20T01:33:54;7.33;;;6.73;;
33074;SDS011;19433;51.292;6.868;2023-03-20T01:36:20;7.37;;;6.70;;
33074;SDS011;19433;51.292;6.868;2023-03-20T01:38:48;7.70;;;6.90;;
33074;SDS011;19433;51.292;6.868;2023-03-20T01:41:18;9.60;;;7.73;;
33074;SDS011;19433;51.292;6.868;2023-03-20T01:43:46;8.53;;;7.83;;
33074;SDS011;19433;51.292;6.868;2023-03-20T01:51:20;8.07;;;7.37;;
33074;SDS011;19433;51.292;6.868;2023-03-20T01:53:50;7.40;;;6.70;;
33074;SDS011;19433;51.292;6.868;2023-03-20T01:56:22;7.90;;;6.97;;
33074;SDS011;19433;51.292;6.868;2023-03-20T01:58:50;7.80;;;7.10;;
33074;SDS011;19433;51.292;6.868;2023-03-20T02:01:22;8.70;;;7.90;;
33074;SDS011;19433;51.292;6.868;2023-03-20T02:03:49;10.20;;;7.73;;
33074;SDS011;19433;51.292;6.868;2023-03-20T02:06:15;9.60;;;8.13;;
33074;SDS011;19433;51.292;6.868;2023-03-20T02:08:46;8.67;;;7.77;;
33074;SDS011;19433;51.292;6.868;2023-03-20T02:11:13;9.70;;;8.80;;
33074;SDS011;19433;51.292;6.868;2023-03-20T02:18:46;9.50;;;7.70;;
33074;SDS011;19433;51.292;6.868;2023-03-20T02:29:58;9.70;;;8.70;;
33074;SDS011;19433;51.292;6.868;2023-03-20T02:48:52;10.90;;;9.07;;
33074;SDS011;19433;51.292;6.868;2023-03-20T02:56:49;9.27;;;8.37;;
33074;SDS011;19433;51.292;6.868;2023-03-20T03:02:26;10.90;;;8.70;;
33074;SDS011;19433;51.292;6.868;2023-03-20T03:05:08;10.90;;;9.20;;
33074;SDS011;19433;51.292;6.868;2023-03-20T03:07:37;10.80;;;9.67;;
33074;SDS011;19433;51.292;6.868;2023-03-20T03:10:22;10.80;;;9.67;;
33074;SDS011;19433;51.292;6.868;2023-03-20T03:12:52;12.30;;;9.80;;
33074;SDS011;19433;51.292;6.868;2023-03-20T03:18:02;11.50;;;10.30;;
33074;SDS011;19433;51.292;6.868;2023-03-20T03:54:08;13.50;;;11.77;;
33074;SDS011;19433;51.292;6.868;2023-03-20T03:56:39;11.50;;;10.30;;
33074;SDS011;19433;51.292;6.868;2023-03-20T03:59:17;12.37;;;10.77;;
33074;SDS011;19433;51.292;6.868;2023-03-20T04:01:49;14.50;;;11.70;;
33074;SDS011;19433;51.292;6.868;2023-03-20T04:04:16;13.77;;;12.23;;
33074;SDS011;19433;51.292;6.868;2023-03-20T04:06:44;11.57;;;10.37;;
33074;SDS011;19433;51.292;6.868;2023-03-20T04:19:24;13.43;;;11.57;;
33074;SDS011;19433;51.292;6.868;2023-03-20T04:21:49;13.17;;;11.70;;
33074;SDS011;19433;51.292;6.868;2023-03-20T04:24:15;13.13;;;11.77;;
33074;SDS011;19433;51.292;6.868;2023-03-20T04:26:40;16.67;;;11.07;;
33074;SDS011;19433;51.292;6.868;2023-03-20T04:29:06;13.97;;;11.50;;
33074;SDS011;19433;51.292;6.868;2023-03-20T04:31:32;14.30;;;11.70;;
33074;SDS011;19433;51.292;6.868;2023-03-20T04:33:58;13.00;;;11.60;;
33074;SDS011;19433;51.292;6.868;2023-03-20T04:36:23;15.13;;;12.30;;
33074;SDS011;19433;51.292;6.868;2023-03-20T04:41:24;15.40;;;12.17;;
33074;SDS011;19433;51.292;6.868;2023-03-20T04:43:49;15.00;;;11.70;;
33074;SDS011;19433;51.292;6.868;2023-03-20T04:48:50;13.20;;;11.90;;
33074;SDS011;19433;51.292;6.868;2023-03-20T04:51:15;14.97;;;11.23;;
33074;SDS011;19433;51.292;6.868;2023-03-20T04:53:41;15.13;;;11.03;;
33074;SDS011;19433;51.292;6.868;2023-03-20T04:56:06;17.63;;;12.83;;
33074;SDS011;19433;51.292;6.868;2023-03-20T04:58:32;13.27;;;11.00;;
33074;SDS011;19433;51.292;6.868;2023-03-20T05:00:59;14.90;;;12.10;;
33074;SDS011;19433;51.292;6.868;2023-03-20T05:03:25;13.80;;;11.60;;
33074;SDS011;19433;51.292;6.868;2023-03-20T05:13:33;13.17;;;10.77;;
33074;SDS011;19433;51.292;6.868;2023-03-20T05:15:59;12.33;;;10.80;;
33074;SDS011;19433;51.292;6.868;2023-03-20T05:23:35;13.27;;;10.33;;
33074;SDS011;19433;51.292;6.868;2023-03-20T05:26:01;13.23;;;11.07;;
33074;SDS011;19433;51.292;6.868;2023-03-20T05:28:27;12.50;;;11.20;;
33074;SDS011;19433;51.292;6.868;2023-03-20T05:30:52;15.27;;;12.20;;
33074;SDS011;19433;51.292;6.868;2023-03-20T05:33:18;13.10;;;11.00;;
33074;SDS011;19433;51.292;6.868;2023-03-20T05:35:43;19.70;;;11.53;;
33074;SDS011;19433;51.292;6.868;2023-03-20T05:40:45;17.73;;;11.30;;
33074;SDS011;19433;51.292;6.868;2023-03-20T05:43:10;14.90;;;11.47;;
33074;SDS011;19433;51.292;6.868;2023-03-20T05:45:36;12.10;;;10.90;;
33074;SDS011;19433;51.292;6.868;2023-03-20T05:48:01;12.67;;;10.20;;
33074;SDS011;19433;51.292;6.868;2023-03-20T05:50:27;12.83;;;10.47;;
33074;SDS011;19433;51.292;6.868;2023-03-20T05:52:53;11.80;;;10.43;;
33074;SDS011;19433;51.292;6.868;2023-03-20T05:55:18;14.87;;;10.40;;
33074;SDS011;19433;51.292;6.868;2023-03-20T05:57:44;13.47;;;10.90;;
33074;SDS011;19433;51.292;6.868;2023-03-20T06:00:12;12.40;;;11.00;;
33074;SDS011;19433;51.292;6.868;2023-03-20T06:05:10;16.13;;;12.40;;
33074;SDS011;19433;51.292;6.868;2023-03-20T06:07:36;14.37;;;11.10;;
33074;SDS011;19433;51.292;6.868;2023-03-20T06:10:02;13.07;;;11.30;;
33074;SDS011;19433;51.292;6.868;2023-03-20T06:12:28;16.30;;;12.53;;
33074;SDS011;19433;51.292;6.868;2023-03-20T06:14:53;15.30;;;11.83;;
33074;SDS011;19433;51.292;6.868;2023-03-20T06:17:19;14.10;;;12.10;;
33074;SDS011;19433;51.292;6.868;2023-03-20T06:19:45;14.60;;;11.43;;
33074;SDS011;19433;51.292;6.868;2023-03-20T06:22:10;12.83;;;10.50;;
33074;SDS011;19433;51.292;6.868;2023-03-20T06:24:36;12.90;;;11.40;;
33074;SDS011;19433;51.292;6.868;2023-03-20T06:27:02;14.10;;;9.90;;
33074;SDS011;19433;51.292;6.868;2023-03-20T06:29:27;12.20;;;10.80;;
33074;SDS011;19433;51.292;6.868;2023-03-20T06:31:53;14.17;;;11.17;;
33074;SDS011;19433;51.292;6.868;2023-03-20T06:34:18;13.20;;;10.83;;
33074;SDS011;19433;51.292;6.868;2023-03-20T06:36:44;13.63;;;11.20;;
33074;SDS011;19433;51.292;6.868;2023-03-20T06:39:09;13.13;;;10.77;;
33074;SDS011;19433;51.292;6.868;2023-03-20T06:41:34;13.20;;;10.27;;
33074;SDS011;19433;51.292;6.868;2023-03-20T06:44:00;13.87;;;11.00;;
33074;SDS011;19433;51.292;6.868;2023-03-20T06:46:25;16.33;;;9.70;;
33074;SDS011;19433;51.292;6.868;2023-03-20T06:48:50;14.63;;;10.73;;
33074;SDS011;19433;51.292;6.868;2023-03-20T06:51:16;12.43;;;9.87;;
33074;SDS011;19433;51.292;6.868;2023-03-20T06:53:42;13.60;;;10.30;;
33074;SDS011;19433;51.292;6.868;2023-03-20T06:56:08;10.03;;;7.93;;
33074;SDS011;19433;51.292;6.868;2023-03-20T06:58:37;11.83;;;8.80;;
33074;SDS011;19433;51.292;6.868;2023-03-20T07:01:11;20.67;;;9.57;;
33074;SDS011;19433;51.292;6.868;2023-03-20T07:03:38;8.97;;;8.07;;
33074;SDS011;19433;51.292;6.868;2023-03-20T07:06:04;11.10;;;8.40;;
33074;SDS011;19433;51.292;6.868;2023-03-20T07:08:30;9.70;;;7.57;;
33074;SDS011;19433;51.292;6.868;2023-03-20T07:10:55;10.27;;;8.60;;
33074;SDS011;19433;51.292;6.868;2023-03-20T07:13:21;10.90;;;8.73;;
33074;SDS011;19433;51.292;6.868;2023-03-20T07:15:46;11.37;;;8.20;;
33074;SDS011;19433;51.292;6.868;2023-03-20T07:18:11;8.87;;;7.90;;
33074;SDS011;19433;51.292;6.868;2023-03-20T07:20:37;8.53;;;7.67;;
33074;SDS011;19433;51.292;6.868;2023-03-20T07:23:02;7.80;;;6.77;;
33074;SDS011;19433;51.292;6.868;2023-03-20T07:25:27;9.50;;;7.40;;
33074;SDS011;19433;51.292;6.868;2023-03-20T07:27:53;8.27;;;6.50;;
33074;SDS011;19433;51.292;6.868;2023-03-20T07:30:18;7.80;;;6.27;;
33074;SDS011;19433;51.292;6.868;2023-03-20T07:32:43;7.00;;;6.30;;
33074;SDS011;19433;51.292;6.868;2023-03-20T07:35:12;6.50;;;5.90;;
33074;SDS011;19433;51.292;6.868;2023-03-20T07:37:37;7.60;;;6.50;;
33074;SDS011;19433;51.292;6.868;2023-03-20T07:40:03;8.90;;;7.00;;
33074;SDS011;19433;51.292;6.868;2023-03-20T07:42:29;9.90;;;6.67;;
33074;SDS011;19433;51.292;6.868;2023-03-20T07:44:54;9.23;;;6.93;;
33074;SDS011;19433;51.292;6.868;2023-03-20T07:47:20;9.20;;;6.87;;
33074;SDS011;19433;51.292;6.868;2023-03-20T07:49:45;10.30;;;7.97;;
33074;SDS011;19433;51.292;6.868;2023-03-20T07:52:11;8.47;;;7.50;;
33074;SDS011;19433;51.292;6.868;2023-03-20T07:54:36;9.07;;;7.73;;
33074;SDS011;19433;51.292;6.868;2023-03-20T07:57:01;13.80;;;7.70;;
33074;SDS011;19433;51.292;6.868;2023-03-20T07:59:29;10.17;;;8.10;;
33074;SDS011;19433;51.292;6.868;2023-03-20T08:01:54;12.30;;;8.20;;
33074;SDS011;19433;51.292;6.868;2023-03-20T08:04:19;10.40;;;8.87;;
33074;SDS011;19433;51.292;6.868;2023-03-20T08:06:46;11.10;;;8.83;;
33074;SDS011;19433;51.292;6.868;2023-03-20T08:09:11;10.17;;;8.60;;
33074;SDS011;19433;51.292;6.868;2023-03-20T08:11:37;11.30;;;10.10;;
33074;SDS011;19433;51.292;6.868;2023-03-20T08:14:02;11.10;;;8.93;;
33074;SDS011;19433;51.292;6.868;2023-03-20T08:16:27;11.30;;;9.23;;
33074;SDS011;19433;51.292;6.868;2023-03-20T08:18:52;10.40;;;9.30;;
33074;SDS011;19433;51.292;6.868;2023-03-20T08:21:20;12.23;;;10.40;;
33074;SDS011;19433;51.292;6.868;2023-03-20T08:23:45;10.30;;;9.17;;
33074;SDS011;19433;51.292;6.868;2023-03-20T08:26:10;10.53;;;8.97;;
33074;SDS011;19433;51.292;6.868;2023-03-20T08:28:36;9.93;;;8.90;;
33074;SDS011;19433;51.292;6.868;2023-03-20T08:31:04;9.33;;;8.30;;
33074;SDS011;19433;51.292;6.868;2023-03-20T08:33:32;11.17;;;9.07;;
33074;SDS011;19433;51.292;6.868;2023-03-20T08:35:57;10.77;;;8.33;;
33074;SDS011;19433;51.292;6.868;2023-03-20T08:38:23;17.30;;;9.17;;
33074;SDS011;19433;51.292;6.868;2023-03-20T08:40:49;10.37;;;8.97;;
33074;SDS011;19433;51.292;6.868;2023-03-20T08:43:14;9.67;;;8.57;;
33074;SDS011;19433;51.292;6.868;2023-03-20T08:45:39;12.27;;;8.63;;
33074;SDS011;19433;51.292;6.868;2023-03-20T08:48:05;9.80;;;7.80;;
33074;SDS011;19433;51.292;6.868;2023-03-20T08:50:30;8.37;;;7.47;;
33074;SDS011;19433;51.292;6.868;2023-03-20T08:52:56;7.37;;;6.73;;
33074;SDS011;19433;51.292;6.868;2023-03-20T08:55:22;8.90;;;7.10;;
33074;SDS011;19433;51.292;6.868;2023-03-20T08:57:47;9.47;;;7.10;;
33074;SDS011;19433;51.292;6.868;2023-03-20T09:00:13;10.53;;;7.87;;
33074;SDS011;19433;51.292;6.868;2023-03-20T09:02:40;10.50;;;7.07;;
33074;SDS011;19433;51.292;6.868;2023-03-20T09:05:08;10.07;;;7.50;;
33074;SDS011;19433;51.292;6.868;2023-03-20T09:07:34;8.97;;;7.40;;
33074;SDS011;19433;51.292;6.868;2023-03-20T09:10:00;9.40;;;7.43;;
33074;SDS011;19433;51.292;6.868;2023-03-20T09:12:26;9.57;;;7.77;;
33074;SDS011;19433;51.292;6.868;2023-03-20T09:14:51;14.40;;;7.63;;
33074;SDS011;19433;51.292;6.868;2023-03-20T09:17:17;9.23;;;6.60;;
33074;SDS011;19433;51.292;6.868;2023-03-20T09:19:42;7.80;;;7.00;;
33074;SDS011;19433;51.292;6.868;2023-03-20T09:22:11;10.07;;;7.07;;
33074;SDS011;19433;51.292;6.868;2023-03-20T09:24:37;8.23;;;6.83;;
33074;SDS011;19433;51.292;6.868;2023-03-20T09:27:02;10.90;;;7.70;;
33074;SDS011;19433;51.292;6.868;2023-03-20T09:29:27;11.50;;;7.10;;
33074;SDS011;19433;51.292;6.868;2023-03-20T09:31:53;11.67;;;6.40;;
33074;SDS011;19433;51.292;6.868;2023-03-20T09:34:18;13.97;;;6.37;;
33074;SDS011;19433;51.292;6.868;2023-03-20T09:36:44;9.33;;;5.93;;
33074;SDS011;19433;51.292;6.868;2023-03-20T09:39:09;7.13;;;4.83;;
33074;SDS011;19433;51.292;6.868;2023-03-20T09:41:35;5.83;;;5.30;;
33074;SDS011;19433;51.292;6.868;2023-03-20T09:49:47;5.00;;;3.97;;
33074;SDS011;19433;51.292;6.868;2023-03-20T09:52:33;8.37;;;5.40;;
33074;SDS011;19433;51.292;6.868;2023-03-20T09:55:05;4.67;;;3.77;;
33074;SDS011;19433;51.292;6.868;2023-03-20T09:57:38;6.07;;;3.67;;
33074;SDS011;19433;51.292;6.868;2023-03-20T10:00:19;4.07;;;3.37;;
33074;SDS011;19433;51.292;6.868;2023-03-20T10:02:49;5.63;;;4.13;;
33074;SDS011;19433;51.292;6.868;2023-03-20T10:05:25;6.73;;;3.80;;
33074;SDS011;19433;51.292;6.868;2023-03-20T10:07:55;3.40;;;3.07;;
33074;SDS011;19433;51.292;6.868;2023-03-20T10:10:26;4.90;;;3.50;;
33074;SDS011;19433;51.292;6.868;2023-03-20T10:13:47;5.43;;;3.63;;
33074;SDS011;19433;51.292;6.868;2023-03-20T10:19:00;3.07;;;2.70;;
33074;SDS011;19433;51.292;6.868;2023-03-20T10:21:43;4.27;;;3.30;;
33074;SDS011;19433;51.292;6.868;2023-03-20T10:24:13;5.30;;;3.10;;
33074;SDS011;19433;51.292;6.868;2023-03-20T10:26:45;8.20;;;3.00;;
33074;SDS011;19433;51.292;6.868;2023-03-20T10:29:18;7.47;;;3.40;;
33074;SDS011;19433;51.292;6.868;2023-03-20T10:34:24;5.23;;;3.07;;
33074;SDS011;19433;51.292;6.868;2023-03-20T10:42:29;7.40;;;3.70;;
33074;SDS011;19433;51.292;6.868;2023-03-20T10:47:54;3.50;;;2.97;;
33074;SDS011;19433;51.292;6.868;2023-03-20T10:50:22;3.80;;;3.30;;
33074;SDS011;19433;51.292;6.868;2023-03-20T10:52:55;3.07;;;2.77;;
33074;SDS011;19433;51.292;6.868;2023-03-20T10:55:24;7.70;;;3.57;;
33074;SDS011;19433;51.292;6.868;2023-03-20T10:58:04;5.10;;;3.83;;
33074;SDS011;19433;51.292;6.868;2023-03-20T11:00:42;4.67;;;3.10;;
33074;SDS011;19433;51.292;6.868;2023-03-20T11:03:08;5.23;;;3.73;;
33074;SDS011;19433;51.292;6.868;2023-03-20T11:05:44;7.33;;;4.20;;
33074;SDS011;19433;51.292;6.868;2023-03-20T11:08:11;6.40;;;3.80;;
33074;SDS011;19433;51.292;6.868;2023-03-20T11:10:39;6.03;;;3.93;;
33074;SDS011;19433;51.292;6.868;2023-03-20T11:13:14;5.20;;;3.63;;
33074;SDS011;19433;51.292;6.868;2023-03-20T11:15:46;3.10;;;2.67;;
33074;SDS011;19433;51.292;6.868;2023-03-20T11:18:14;4.23;;;3.07;;
33074;SDS011;19433;51.292;6.868;2023-03-20T11:20:44;3.80;;;3.23;;
33074;SDS011;19433;51.292;6.868;2023-03-20T11:23:14;6.83;;;3.70;;
33074;SDS011;19433;51.292;6.868;2023-03-20T11:25:47;6.50;;;4.30;;
33074;SDS011;19433;51.292;6.868;2023-03-20T11:28:35;8.70;;;3.93;;
33074;SDS011;19433;51.292;6.868;2023-03-20T11:31:05;6.40;;;3.80;;
33074;SDS011;19433;51.292;6.868;2023-03-20T11:33:43;5.83;;;3.87;;
33074;SDS011;19433;51.292;6.868;2023-03-20T11:36:34;7.87;;;3.87;;
33074;SDS011;19433;51.292;6.868;2023-03-20T11:39:14;5.37;;;3.57;;
33074;SDS011;19433;51.292;6.868;2023-03-20T11:41:47;7.50;;;3.43;;
33074;SDS011;19433;51.292;6.868;2023-03-20T11:44:28;6.17;;;3.40;;
33074;SDS011;19433;51.292;6.868;2023-03-20T11:47:03;7.00;;;3.53;;
33074;SDS011;19433;51.292;6.868;2023-03-20T11:49:30;7.07;;;3.00;;
33074;SDS011;19433;51.292;6.868;2023-03-20T11:52:08;6.03;;;2.60;;
33074;SDS011;19433;51.292;6.868;2023-03-20T11:54:44;7.63;;;3.17;;
33074;SDS011;19433;51.292;6.868;2023-03-20T11:57:25;4.60;;;3.03;;
33074;SDS011;19433;51.292;6.868;2023-03-20T11:59:59;4.20;;;2.87;;
33074;SDS011;19433;51.292;6.868;2023-03-20T12:02:26;4.47;;;2.80;;
33074;SDS011;19433;51.292;6.868;2023-03-20T12:04:51;3.00;;;2.73;;
33074;SDS011;19433;51.292;6.868;2023-03-20T12:07:27;5.77;;;2.70;;
33074;SDS011;19433;51.292;6.868;2023-03-20T12:10:04;4.90;;;2.33;;
33074;SDS011;19433;51.292;6.868;2023-03-20T12:12:39;5.13;;;2.93;;
33074;SDS011;19433;51.292;6.868;2023-03-20T12:17:55;5.80;;;3.30;;
33074;SDS011;19433;51.292;6.868;2023-03-20T12:23:10;3.47;;;2.80;;
33074;SDS011;19433;51.292;6.868;2023-03-20T12:25:46;5.40;;;3.70;;
33074;SDS011;19433;51.292;6.868;2023-03-20T12:31:21;4.10;;;3.17;;
33074;SDS011;19433;51.292;6.868;2023-03-20T12:34:07;7.70;;;3.50;;
33074;SDS011;19433;51.292;6.868;2023-03-20T12:36:53;4.03;;;2.90;;
33074;SDS011;19433;51.292;6.868;2023-03-20T12:39:25;4.50;;;3.00;;
33074;SDS011;19433;51.292;6.868;2023-03-20T12:42:05;4.93;;;4.23;;
33074;SDS011;19433;51.292;6.868;2023-03-20T12:47:35;4.80;;;2.87;;
33074;SDS011;19433;51.292;6.868;2023-03-20T12:56:10;4.97;;;3.10;;
33074;SDS011;19433;51.292;6.868;2023-03-20T12:59:03;5.10;;;2.97;;
33074;SDS011;19433;51.292;6.868;2023-03-20T13:01:41;4.43;;;3.10;;
33074;SDS011;19433;51.292;6.868;2023-03-20T13:07:21;3.77;;;3.00;;
33074;SDS011;19433;51.292;6.868;2023-03-20T13:10:18;3.50;;;3.20;;
33074;SDS011;19433;51.292;6.868;2023-03-20T13:21:42;3.90;;;3.10;;
33074;SDS011;19433;51.292;6.868;2023-03-20T13:24:20;4.23;;;2.80;;
33074;SDS011;19433;51.292;6.868;2023-03-20T13:29:47;5.40;;;3.60;;
33074;SDS011;19433;51.292;6.868;2023-03-20T13:35:16;5.57;;;3.60;;
33074;SDS011;19433;51.292;6.868;2023-03-20T13:37:48;3.30;;;2.93;;
33074;SDS011;19433;51.292;6.868;2023-03-20T13:40:22;4.53;;;3.17;;
33074;SDS011;19433;51.292;6.868;2023-03-20T13:42:56;2.40;;;2.20;;
33074;SDS011;19433;51.292;6.868;2023-03-20T13:48:04;6.47;;;3.93;;
33074;SDS011;19433;51.292;6.868;2023-03-20T14:04:45;3.87;;;3.20;;
33074;SDS011;19433;51.292;6.868;2023-03-20T14:07:34;4.87;;;3.40;;
33074;SDS011;19433;51.292;6.868;2023-03-20T14:12:47;8.97;;;3.53;;
33074;SDS011;19433;51.292;6.868;2023-03-20T14:15:18;6.10;;;2.93;;
33074;SDS011;19433;51.292;6.868;2023-03-20T14:17:45;5.53;;;3.13;;
33074;SDS011;19433;51.292;6.868;2023-03-20T14:20:14;4.83;;;3.00;;
33074;SDS011;19433;51.292;6.868;2023-03-20T14:22:51;6.00;;;2.73;;
33074;SDS011;19433;51.292;6.868;2023-03-20T14:25:18;5.70;;;3.20;;
33074;SDS011;19433;51.292;6.868;2023-03-20T14:28:28;13.30;;;3.63;;
33074;SDS011;19433;51.292;6.868;2023-03-20T14:35:37;6.57;;;3.33;;
33074;SDS011;19433;51.292;6.868;2023-03-20T14:38:08;9.27;;;3.87;;
33074;SDS011;19433;51.292;6.868;2023-03-20T14:40:42;9.17;;;3.40;;
33074;SDS011;19433;51.292;6.868;2023-03-20T14:43:22;7.23;;;3.20;;
33074;SDS011;19433;51.292;6.868;2023-03-20T14:46:14;13.30;;;4.20;;
33074;SDS011;19433;51.292;6.868;2023-03-20T14:48:41;5.03;;;2.67;;
33074;SDS011;19433;51.292;6.868;2023-03-20T14:56:48;5.20;;;2.90;;
33074;SDS011;19433;51.292;6.868;2023-03-20T14:59:15;8.13;;;3.33;;
33074;SDS011;19433;51.292;6.868;2023-03-20T15:01:43;6.90;;;3.23;;
33074;SDS011;19433;51.292;6.868;2023-03-20T15:06:50;8.73;;;3.40;;
33074;SDS011;19433;51.292;6.868;2023-03-20T15:09:39;8.10;;;3.63;;
33074;SDS011;19433;51.292;6.868;2023-03-20T15:12:08;6.30;;;4.10;;
33074;SDS011;19433;51.292;6.868;2023-03-20T15:14:38;8.43;;;3.67;;
33074;SDS011;19433;51.292;6.868;2023-03-20T15:17:19;6.73;;;3.60;;
33074;SDS011;19433;51.292;6.868;2023-03-20T15:19:47;5.33;;;3.10;;
33074;SDS011;19433;51.292;6.868;2023-03-20T15:22:14;7.97;;;4.00;;
33074;SDS011;19433;51.292;6.868;2023-03-20T15:24:41;12.17;;;4.10;;
33074;SDS011;19433;51.292;6.868;2023-03-20T15:27:08;8.03;;;3.67;;
33074;SDS011;19433;51.292;6.868;2023-03-20T15:29:38;5.97;;;3.40;;
33074;SDS011;19433;51.292;6.868;2023-03-20T15:32:11;5.47;;;3.50;;
33074;SDS011;19433;51.292;6.868;2023-03-20T15:34:36;8.80;;;4.60;;
33074;SDS011;19433;51.292;6.868;2023-03-20T15:37:08;7.20;;;4.10;;
33074;SDS011;19433;51.292;6.868;2023-03-20T15:39:46;6.47;;;3.40;;
33074;SDS011;19433;51.292;6.868;2023-03-20T15:42:14;6.00;;;3.40;;
33074;SDS011;19433;51.292;6.868;2023-03-20T15:44:42;8.60;;;4.27;;
33074;SDS011;19433;51.292;6.868;2023-03-20T15:49:34;10.20;;;3.50;;
33074;SDS011;19433;51.292;6.868;2023-03-20T15:52:05;4.23;;;3.10;;
33074;SDS011;19433;51.292;6.868;2023-03-20T15:54:50;5.77;;;3.60;;
33074;SDS011;19433;51.292;6.868;2023-03-20T15:57:20;4.73;;;3.60;;
33074;SDS011;19433;51.292;6.868;2023-03-20T15:59:50;7.10;;;3.30;;
33074;SDS011;19433;51.292;6.868;2023-03-20T16:02:15;6.27;;;2.90;;
33074;SDS011;19433;51.292;6.868;2023-03-20T16:04:48;5.30;;;2.57;;
33074;SDS011;19433;51.292;6.868;2023-03-20T16:07:18;5.20;;;3.00;;
33074;SDS011;19433;51.292;6.868;2023-03-20T16:09:45;5.47;;;3.10;;
33074;SDS011;19433;51.292;6.868;2023-03-20T16:12:13;5.43;;;3.53;;
33074;SDS011;19433;51.292;6.868;2023-03-20T16:14:41;6.10;;;3.30;;
33074;SDS011;19433;51.292;6.868;2023-03-20T16:17:09;5.83;;;2.97;;
33074;SDS011;19433;51.292;6.868;2023-03-20T16:19:37;11.33;;;2.80;;
33074;SDS011;19433;51.292;6.868;2023-03-20T16:24:47;5.07;;;3.20;;
33074;SDS011;19433;51.292;6.868;2023-03-20T16:27:21;7.00;;;3.57;;
33074;SDS011;19433;51.292;6.868;2023-03-20T16:29:51;6.70;;;3.47;;
33074;SDS011;19433;51.292;6.868;2023-03-20T16:32:19;8.10;;;3.80;;
33074;SDS011;19433;51.292;6.868;2023-03-20T16:34:49;10.00;;;3.60;;
33074;SDS011;19433;51.292;6.868;2023-03-20T16:40:42;4.07;;;2.47;;
33074;SDS011;19433;51.292;6.868;2023-03-20T16:42:51;5.43;;;4.87;;
33074;SDS011;19433;51.292;6.868;2023-03-20T16:45:28;5.80;;;3.30;;
33074;SDS011;19433;51.292;6.868;2023-03-20T16:50:41;8.13;;;3.47;;
33074;SDS011;19433;51.292;6.868;2023-03-20T16:53:13;5.20;;;3.13;;
33074;SDS011;19433;51.292;6.868;2023-03-20T16:55:44;4.03;;;3.30;;
33074;SDS011;19433;51.292;6.868;2023-03-20T16:58:13;9.73;;;3.30;;
33074;SDS011;19433;51.292;6.868;2023-03-20T17:00:48;6.80;;;3.50;;
33074;SDS011;19433;51.292;6.868;2023-03-20T17:03:17;8.43;;;4.07;;
33074;SDS011;19433;51.292;6.868;2023-03-20T17:05:56;4.70;;;3.60;;
33074;SDS011;19433;51.292;6.868;2023-03-20T17:08:27;13.60;;;4.80;;
33074;SDS011;19433;51.292;6.868;2023-03-20T17:10:59;11.93;;;3.93;;
33074;SDS011;19433;51.292;6.868;2023-03-20T17:13:28;9.60;;;4.10;;
33074;SDS011;19433;51.292;6.868;2023-03-20T17:15:53;7.40;;;4.67;;
33074;SDS011;19433;51.292;6.868;2023-03-20T17:18:19;8.47;;;4.07;;
33074;SDS011;19433;51.292;6.868;2023-03-20T17:20:44;10.97;;;3.80;;
33074;SDS011;19433;51.292;6.868;2023-03-20T17:23:11;6.20;;;3.40;;
33074;SDS011;19433;51.292;6.868;2023-03-20T17:25:38;5.07;;;3.20;;
33074;SDS011;19433;51.292;6.868;2023-03-20T17:28:03;6.03;;;3.73;;
33074;SDS011;19433;51.292;6.868;2023-03-20T17:30:29;10.60;;;3.97;;
33074;SDS011;19433;51.292;6.868;2023-03-20T17:32:54;4.37;;;3.70;;
33074;SDS011;19433;51.292;6.868;2023-03-20T17:35:19;9.80;;;5.57;;
33074;SDS011;19433;51.292;6.868;2023-03-20T17:37:45;8.07;;;3.37;;
33074;SDS011;19433;51.292;6.868;2023-03-20T17:40:16;9.13;;;3.83;;
33074;SDS011;19433;51.292;6.868;2023-03-20T17:42:44;8.53;;;4.00;;
33074;SDS011;19433;51.292;6.868;2023-03-20T17:45:11;6.87;;;3.37;;
33074;SDS011;19433;51.292;6.868;2023-03-20T17:47:38;5.77;;;3.17;;
33074;SDS011;19433;51.292;6.868;2023-03-20T17:50:05;4.17;;;3.47;;
33074;SDS011;19433;51.292;6.868;2023-03-20T17:52:31;11.30;;;4.00;;
33074;SDS011;19433;51.292;6.868;2023-03-20T17:54:56;6.43;;;3.90;;
33074;SDS011;19433;51.292;6.868;2023-03-20T17:57:32;5.80;;;3.73;;
33074;SDS011;19433;51.292;6.868;2023-03-20T18:00:00;5.33;;;3.10;;
33074;SDS011;19433;51.292;6.868;2023-03-20T18:02:26;6.60;;;3.70;;
33074;SDS011;19433;51.292;6.868;2023-03-20T18:04:51;5.40;;;3.10;;
33074;SDS011;19433;51.292;6.868;2023-03-20T18:07:17;6.83;;;3.63;;
33074;SDS011;19433;51.292;6.868;2023-03-20T18:09:43;8.90;;;3.60;;
33074;SDS011;19433;51.292;6.868;2023-03-20T18:12:10;6.40;;;3.30;;
33074;SDS011;19433;51.292;6.868;2023-03-20T18:14:37;4.83;;;2.93;;
33074;SDS011;19433;51.292;6.868;2023-03-20T18:17:03;8.27;;;4.17;;
33074;SDS011;19433;51.292;6.868;2023-03-20T18:19:29;4.63;;;3.10;;
33074;SDS011;19433;51.292;6.868;2023-03-20T18:21:55;7.73;;;3.87;;
33074;SDS011;19433;51.292;6.868;2023-03-20T18:24:21;5.43;;;3.57;;
33074;SDS011;19433;51.292;6.868;2023-03-20T18:26:47;6.13;;;3.20;;
33074;SDS011;19433;51.292;6.868;2023-03-20T18:29:13;10.10;;;3.20;;
33074;SDS011;19433;51.292;6.868;2023-03-20T18:31:39;4.40;;;2.77;;
33074;SDS011;19433;51.292;6.868;2023-03-20T18:34:04;9.30;;;3.20;;
33074;SDS011;19433;51.292;6.868;2023-03-20T18:36:30;5.50;;;3.20;;
33074;SDS011;19433;51.292;6.868;2023-03-20T18:38:55;4.30;;;3.37;;
33074;SDS011;19433;51.292;6.868;2023-03-20T18:41:21;8.30;;;3.87;;
33074;SDS011;19433;51.292;6.868;2023-03-20T18:43:46;8.30;;;3.30;;